createdAt,value
2023-02-15T00:01:51.250Z,-1.50
2023-02-15T00:04:20.780Z,-1.31
2023-02-15T00:06:47.422Z,-1.53
2023-02-15T00:09:13.950Z,-1.48
2023-02-15T00:11:41.173Z,-1.49
2023-02-15T00:14:14.067Z,-1.42
2023-02-15T00:16:41.787Z,-1.48
2023-02-15T00:19:09.456Z,-1.44
2023-02-15T00:21:37.150Z,-1.42
2023-02-15T00:24:05.860Z,-1.71
2023-02-15T00:26:33.100Z,-1.49
2023-02-15T00:29:00.514Z,-1.55
2023-02-15T00:31:29.101Z,-1.56
2023-02-15T00:33:56.093Z,-1.65
2023-02-15T00:36:22.527Z,-1.75
2023-02-15T00:38:49.090Z,-1.61
2023-02-15T00:41:16.968Z,-1.55
2023-02-15T00:43:43.405Z,-1.57
2023-02-15T00:46:09.923Z,-1.71
2023-02-15T00:48:36.439Z,-1.62
2023-02-15T00:51:04.286Z,-1.71
2023-02-15T00:53:31.897Z,-1.53
2023-02-15T00:55:58.787Z,-1.58
2023-02-15T00:58:26.347Z,-1.50
2023-02-15T01:00:53.683Z,-1.69
2023-02-15T01:03:21.423Z,-1.77
2023-02-15T01:05:49.932Z,-1.63
2023-02-15T01:08:17.237Z,-1.56
2023-02-15T01:10:44.998Z,-1.76
2023-02-15T01:13:11.470Z,-1.65
2023-02-15T01:15:38.005Z,-1.66
2023-02-15T01:18:04.761Z,-1.76
2023-02-15T01:20:31.331Z,-1.71
2023-02-15T01:22:58.296Z,-1.66
2023-02-15T01:25:25.704Z,-1.63
2023-02-15T01:27:52.483Z,-1.65
2023-02-15T01:30:19.448Z,-1.65
2023-02-15T01:32:45.964Z,-1.81
2023-02-15T01:35:12.478Z,-1.74
2023-02-15T01:37:38.992Z,-1.82
2023-02-15T01:40:12.481Z,-1.86
2023-02-15T01:42:39.135Z,-1.57
2023-02-15T01:45:19.031Z,-1.34
2023-02-15T01:47:52.148Z,-1.50
2023-02-15T01:50:45.525Z,-1.86
2023-02-15T01:53:24.758Z,-1.93
2023-02-15T01:56:06.089Z,-1.95
2023-02-15T01:58:33.209Z,-2.02
2023-02-15T02:01:01.875Z,-1.94
2023-02-15T02:03:48.819Z,-2.03
2023-02-15T02:06:15.569Z,-2.00
2023-02-15T02:08:43.863Z,-2.05
2023-02-15T02:11:12.075Z,-2.13
2023-02-15T02:13:40.433Z,-1.95
2023-02-15T02:16:14.004Z,-1.76
2023-02-15T02:18:54.550Z,-1.97
2023-02-15T02:21:36.792Z,-1.76
2023-02-15T02:24:24.200Z,-1.86
2023-02-15T02:27:09.863Z,-2.06
2023-02-15T02:30:03.852Z,-2.18
2023-02-15T02:32:52.174Z,-2.19
2023-02-15T02:35:34.064Z,-2.24
2023-02-15T02:38:24.035Z,-2.28
2023-02-15T02:41:25.350Z,-2.28
2023-02-15T02:44:19.340Z,-2.24
2023-02-15T02:46:58.356Z,-2.27
2023-02-15T02:49:31.506Z,-2.15
2023-02-15T02:52:03.189Z,-2.19
2023-02-15T02:54:32.084Z,-2.32
2023-02-15T02:57:04.530Z,-2.23
2023-02-15T02:59:37.460Z,-2.28
2023-02-15T03:02:14.903Z,-2.26
2023-02-15T03:04:46.884Z,-2.32
2023-02-15T03:07:22.868Z,-2.08
2023-02-15T03:09:53.814Z,-2.15
2023-02-15T03:12:22.939Z,-2.07
2023-02-15T03:14:55.777Z,-2.09
2023-02-15T03:17:24.711Z,-2.13
2023-02-15T03:19:54.641Z,-2.11
2023-02-15T03:22:27.445Z,-2.23
2023-02-15T03:25:03.168Z,-2.27
2023-02-15T03:27:48.249Z,-2.40
2023-02-15T03:30:19.583Z,-2.33
2023-02-15T03:32:48.165Z,-2.32
2023-02-15T03:35:15.029Z,-2.27
2023-02-15T03:38:02.615Z,-2.23
2023-02-15T03:40:56.788Z,-2.29
2023-02-15T03:43:52.684Z,-2.28
2023-02-15T03:46:28.615Z,-2.28
2023-02-15T03:49:22.093Z,-2.28
2023-02-15T03:51:51.339Z,-2.33
2023-02-15T03:54:46.699Z,-2.41
2023-02-15T03:57:33.799Z,-2.47
2023-02-15T04:00:20.854Z,-2.38
2023-02-15T04:03:06.710Z,-2.50
2023-02-15T04:05:33.199Z,-2.51
2023-02-15T04:07:59.681Z,-2.45
2023-02-15T04:10:44.844Z,-2.48
2023-02-15T04:13:11.351Z,-2.53
2023-02-15T04:15:56.574Z,-2.54
2023-02-15T04:18:28.826Z,-2.43
2023-02-15T04:21:13.636Z,-2.34
2023-02-15T04:23:58.721Z,-2.22
2023-02-15T04:26:25.154Z,-2.19
2023-02-15T04:28:51.798Z,-2.22
2023-02-15T04:31:18.330Z,-2.38
2023-02-15T04:33:44.848Z,-2.32
2023-02-15T04:36:11.337Z,-2.31
2023-02-15T04:38:37.762Z,-2.39
2023-02-15T04:41:04.193Z,-2.45
2023-02-15T04:43:30.611Z,-2.43
2023-02-15T04:45:57.138Z,-2.39
2023-02-15T04:48:23.680Z,-2.33
2023-02-15T04:50:50.117Z,-2.34
2023-02-15T04:53:18.294Z,-2.40
2023-02-15T04:55:44.825Z,-2.22
2023-02-15T04:58:11.389Z,-2.18
2023-02-15T05:00:37.839Z,-2.19
2023-02-15T05:03:04.404Z,-2.04
2023-02-15T05:05:30.901Z,-1.99
2023-02-15T05:07:57.395Z,-2.07
2023-02-15T05:10:23.859Z,-2.15
2023-02-15T05:12:50.331Z,-2.05
2023-02-15T05:15:16.944Z,-2.11
2023-02-15T05:17:43.391Z,-2.18
2023-02-15T05:20:10.311Z,-2.09
2023-02-15T05:22:36.855Z,-2.33
2023-02-15T05:25:22.095Z,-2.61
2023-02-15T05:28:07.303Z,-2.31
2023-02-15T05:30:33.913Z,-2.19
2023-02-15T05:33:00.474Z,-2.30
2023-02-15T05:35:26.908Z,-2.22
2023-02-15T05:37:53.417Z,-2.27
2023-02-15T05:40:19.855Z,-2.15
2023-02-15T05:42:46.313Z,-2.31
2023-02-15T05:45:12.752Z,-2.09
2023-02-15T05:47:39.192Z,-2.02
2023-02-15T05:50:07.218Z,-1.98
2023-02-15T05:52:33.692Z,-2.19
2023-02-15T05:55:01.180Z,-2.23
2023-02-15T05:57:27.957Z,-2.24
2023-02-15T05:59:54.388Z,-2.23
2023-02-15T06:02:20.916Z,-2.00
2023-02-15T06:04:47.432Z,-2.06
2023-02-15T06:07:14.149Z,-2.08
2023-02-15T06:09:40.797Z,-1.99
2023-02-15T06:12:07.414Z,-1.85
2023-02-15T06:14:33.945Z,-1.86
2023-02-15T06:17:00.431Z,-2.00
2023-02-15T06:19:26.914Z,-1.84
2023-02-15T06:21:53.339Z,-1.86
2023-02-15T06:24:19.781Z,-1.74
2023-02-15T06:26:46.280Z,-1.84
2023-02-15T06:29:12.716Z,-1.87
2023-02-15T06:31:39.346Z,-1.91
2023-02-15T06:34:05.928Z,-1.84
2023-02-15T06:36:32.852Z,-1.87
2023-02-15T06:38:59.504Z,-1.67
2023-02-15T06:41:25.941Z,-1.77
2023-02-15T06:43:52.543Z,-1.90
2023-02-15T06:46:19.030Z,-1.78
2023-02-15T06:48:45.533Z,-1.85
2023-02-15T06:51:12.236Z,-1.77
2023-02-15T06:53:38.784Z,-1.97
2023-02-15T06:56:09.809Z,-2.00
2023-02-15T06:58:40.836Z,-1.98
2023-02-15T07:01:08.248Z,-1.76
2023-02-15T07:03:35.594Z,-1.67
2023-02-15T07:06:06.671Z,-1.74
2023-02-15T07:08:33.148Z,-1.93
2023-02-15T07:11:19.560Z,-2.06
2023-02-15T07:13:46.921Z,-1.92
2023-02-15T07:16:14.077Z,-2.01
2023-02-15T07:18:41.085Z,-1.76
2023-02-15T07:21:10.848Z,-1.78
2023-02-15T07:23:38.584Z,-1.78
2023-02-15T07:26:06.599Z,-1.81
2023-02-15T07:28:34.653Z,-1.95
2023-02-15T07:31:05.969Z,-1.86
2023-02-15T07:33:33.319Z,-1.88
2023-02-15T07:36:03.261Z,-1.88
2023-02-15T07:38:35.465Z,-1.83
2023-02-15T07:41:08.079Z,-1.80
2023-02-15T07:43:37.330Z,-1.61
2023-02-15T07:46:09.869Z,-1.64
2023-02-15T07:48:37.202Z,-1.52
2023-02-15T07:51:05.518Z,-1.33
2023-02-15T07:53:32.575Z,-1.45
2023-02-15T07:56:03.940Z,-1.54
2023-02-15T07:58:49.624Z,-1.41
2023-02-15T08:01:16.140Z,-1.53
2023-02-15T08:03:42.652Z,-1.37
2023-02-15T08:06:09.278Z,-1.29
2023-02-15T08:08:36.432Z,-1.29
2023-02-15T08:11:25.968Z,-1.28
2023-02-15T08:14:03.257Z,-1.14
2023-02-15T08:16:36.160Z,-1.13
2023-02-15T08:19:08.809Z,-1.38
2023-02-15T08:21:37.009Z,-1.31
2023-02-15T08:24:05.030Z,-1.22
2023-02-15T08:26:32.505Z,-1.27
2023-02-15T08:28:59.869Z,-1.01
2023-02-15T08:31:26.720Z,-1.20
2023-02-15T08:33:55.196Z,-1.06
2023-02-15T08:36:24.206Z,-1.04
2023-02-15T08:38:50.837Z,-0.90
2023-02-15T08:41:23.218Z,-0.96
2023-02-15T08:43:55.179Z,-0.94
2023-02-15T08:46:23.314Z,-0.89
2023-02-15T08:48:49.918Z,-1.03
2023-02-15T08:51:22.096Z,-0.94
2023-02-15T08:53:51.208Z,-0.97
2023-02-15T08:56:21.017Z,-0.90
2023-02-15T08:58:47.581Z,-0.74
2023-02-15T09:01:20.823Z,-0.57
2023-02-15T09:03:50.212Z,-0.63
2023-02-15T09:06:20.032Z,-0.72
2023-02-15T09:08:46.664Z,-0.81
2023-02-15T09:11:23.320Z,-0.43
2023-02-15T09:13:58.510Z,-0.50
2023-02-15T09:16:27.649Z,-0.32
2023-02-15T09:18:54.999Z,-0.35
2023-02-15T09:21:25.646Z,-0.24
2023-02-15T09:23:57.567Z,-0.39
2023-02-15T09:26:25.613Z,-0.45
2023-02-15T09:28:56.531Z,-0.31
2023-02-15T09:31:26.968Z,-0.10
2023-02-15T09:33:54.321Z,-0.03
2023-02-15T09:36:23.664Z,-0.12
2023-02-15T09:39:08.506Z,-0.01
2023-02-15T09:41:56.329Z,0.02
2023-02-15T09:45:00.516Z,-0.04
2023-02-15T09:47:33.020Z,0.09
2023-02-15T09:50:15.905Z,0.19
2023-02-15T09:53:03.813Z,0.35
2023-02-15T09:55:57.982Z,0.35
2023-02-15T09:58:53.570Z,0.32
2023-02-15T10:01:48.103Z,0.56
2023-02-15T10:04:20.701Z,0.59
2023-02-15T10:07:18.485Z,0.72
2023-02-15T10:10:09.134Z,0.98
2023-02-15T10:12:47.805Z,1.23
2023-02-15T10:15:25.105Z,1.35
2023-02-15T10:18:13.313Z,1.44
2023-02-15T10:21:19.759Z,1.43
2023-02-15T10:23:59.566Z,1.63
2023-02-15T10:26:42.066Z,1.67
2023-02-15T10:29:18.274Z,1.62
2023-02-15T10:31:49.416Z,1.78
2023-02-15T10:34:38.247Z,2.01
2023-02-15T10:37:56.059Z,2.01
2023-02-15T10:40:31.472Z,2.00
2023-02-15T10:43:18.569Z,2.03
2023-02-15T10:45:57.802Z,2.12
2023-02-15T10:48:30.858Z,2.19
2023-02-15T10:51:05.148Z,2.37
2023-02-15T10:53:43.515Z,2.31
2023-02-15T10:56:23.441Z,2.32
2023-02-15T10:59:05.254Z,2.46
2023-02-15T11:01:45.479Z,2.46
2023-02-15T11:04:33.851Z,2.64
2023-02-15T11:07:07.253Z,2.75
2023-02-15T11:09:43.421Z,2.77
2023-02-15T11:12:18.208Z,2.85
2023-02-15T11:14:51.952Z,2.77
2023-02-15T11:17:23.980Z,2.84
2023-02-15T11:20:05.652Z,3.02
2023-02-15T11:22:34.221Z,2.95
2023-02-15T11:25:02.958Z,3.15
2023-02-15T11:27:35.927Z,3.19
2023-02-15T11:30:10.373Z,3.16
2023-02-15T11:32:41.042Z,3.24
2023-02-15T11:35:10.621Z,3.31
2023-02-15T11:37:47.027Z,3.41
2023-02-15T11:40:23.014Z,3.30
2023-02-15T11:42:51.590Z,3.55
2023-02-15T11:45:31.625Z,3.51
2023-02-15T11:48:00.228Z,3.40
2023-02-15T11:50:32.526Z,3.57
2023-02-15T11:53:04.153Z,3.43
2023-02-15T11:55:31.915Z,3.49
2023-02-15T11:58:22.547Z,3.70
2023-02-15T12:00:53.511Z,3.76
2023-02-15T12:03:25.437Z,3.52
2023-02-15T12:05:59.300Z,3.65
2023-02-15T12:08:27.017Z,3.62
2023-02-15T12:11:04.256Z,3.72
2023-02-15T12:13:31.133Z,3.64
2023-02-15T12:15:59.825Z,3.82
2023-02-15T12:18:40.003Z,3.86
2023-02-15T12:21:26.537Z,3.87
2023-02-15T12:23:58.619Z,3.96
2023-02-15T12:26:30.797Z,3.89
2023-02-15T12:29:03.176Z,3.97
2023-02-15T12:31:37.575Z,3.97
2023-02-15T12:34:13.187Z,3.88
2023-02-15T12:36:47.457Z,4.04
2023-02-15T12:39:13.850Z,3.97
2023-02-15T12:41:47.788Z,4.13
2023-02-15T12:44:20.630Z,3.99
2023-02-15T12:47:02.474Z,4.07
2023-02-15T12:49:31.927Z,4.19
2023-02-15T12:52:01.157Z,4.21
2023-02-15T12:54:42.684Z,4.28
2023-02-15T12:57:28.606Z,4.23
2023-02-15T13:00:17.954Z,4.30
2023-02-15T13:02:48.954Z,4.22
2023-02-15T13:05:34.169Z,4.27
2023-02-15T13:08:19.544Z,4.28
2023-02-15T13:11:21.455Z,4.26
2023-02-15T13:13:56.064Z,4.33
2023-02-15T13:16:32.564Z,4.23
2023-02-15T13:19:15.908Z,4.32
2023-02-15T13:21:46.843Z,4.28
2023-02-15T13:24:24.739Z,4.24
2023-02-15T13:26:52.787Z,4.16
2023-02-15T13:29:29.159Z,4.32
2023-02-15T13:31:58.461Z,4.08
2023-02-15T13:34:37.780Z,4.27
2023-02-15T13:37:22.178Z,4.26
2023-02-15T13:39:55.127Z,4.25
2023-02-15T13:42:28.214Z,4.29
2023-02-15T13:45:23.190Z,4.33
2023-02-15T13:47:52.620Z,4.39
2023-02-15T13:50:43.906Z,4.37
2023-02-15T13:53:29.367Z,4.37
2023-02-15T13:56:13.411Z,4.43
2023-02-15T13:58:58.519Z,4.43
2023-02-15T14:01:57.587Z,4.48
2023-02-15T14:04:48.311Z,4.32
2023-02-15T14:07:39.266Z,4.37
2023-02-15T14:10:26.386Z,4.36
2023-02-15T14:13:20.340Z,4.26
2023-02-15T14:15:53.223Z,4.45
2023-02-15T14:18:30.084Z,4.32
2023-02-15T14:21:08.459Z,4.32
2023-02-15T14:23:56.923Z,4.36
2023-02-15T14:26:45.901Z,4.32
2023-02-15T14:29:30.204Z,4.29
2023-02-15T14:32:03.939Z,4.33
2023-02-15T14:34:59.264Z,4.54
2023-02-15T14:37:31.319Z,4.36
2023-02-15T14:40:23.146Z,4.39
2023-02-15T14:43:01.967Z,4.54
2023-02-15T14:45:43.792Z,4.55
2023-02-15T14:48:22.941Z,4.42
2023-02-15T14:50:49.452Z,4.18
2023-02-15T14:53:28.642Z,4.30
2023-02-15T14:56:08.989Z,4.23
2023-02-15T14:58:36.297Z,4.11
2023-02-15T15:01:08.739Z,4.04
2023-02-15T15:03:39.083Z,4.07
2023-02-15T15:06:06.459Z,3.89
2023-02-15T15:08:38.037Z,3.87
2023-02-15T15:11:42.409Z,3.98
2023-02-15T15:14:11.136Z,3.87
2023-02-15T15:16:37.998Z,3.84
2023-02-15T15:19:09.886Z,3.70
2023-02-15T15:21:51.621Z,3.75
2023-02-15T15:24:39.914Z,3.69
2023-02-15T15:27:37.514Z,3.65
2023-02-15T15:30:23.978Z,3.60
2023-02-15T15:32:56.566Z,3.58
2023-02-15T15:35:44.821Z,3.54
2023-02-15T15:38:29.448Z,3.47
2023-02-15T15:41:11.249Z,3.43
2023-02-15T15:44:17.793Z,3.29
2023-02-15T15:46:44.540Z,3.24
2023-02-15T15:49:17.877Z,3.17
2023-02-15T15:51:46.059Z,3.12
2023-02-15T15:54:21.925Z,2.90
2023-02-15T15:56:51.948Z,2.80
2023-02-15T15:59:23.666Z,2.71
2023-02-15T16:01:50.771Z,2.67
2023-02-15T16:04:32.883Z,2.65
2023-02-15T16:07:19.737Z,2.48
2023-02-15T16:10:05.209Z,2.55
2023-02-15T16:12:34.643Z,2.50
2023-02-15T16:15:46.104Z,2.38
2023-02-15T16:18:17.262Z,2.19
2023-02-15T16:20:52.827Z,2.09
2023-02-15T16:23:37.458Z,2.04
2023-02-15T16:26:32.034Z,1.91
2023-02-15T16:28:59.916Z,1.82
2023-02-15T16:31:26.649Z,1.62
2023-02-15T16:33:55.402Z,1.60
2023-02-15T16:36:29.771Z,1.47
2023-02-15T16:38:56.198Z,1.45
2023-02-15T16:41:25.853Z,1.24
2023-02-15T16:43:54.880Z,1.20
2023-02-15T16:46:27.348Z,1.09
2023-02-15T16:48:58.261Z,0.97
2023-02-15T16:51:28.714Z,0.94
2023-02-15T16:53:57.166Z,1.00
2023-02-15T16:56:25.996Z,0.68
2023-02-15T16:58:54.325Z,0.67
2023-02-15T17:01:24.916Z,0.65
2023-02-15T17:04:10.857Z,0.67
2023-02-15T17:06:37.321Z,0.58
2023-02-15T17:09:06.878Z,0.65
2023-02-15T17:11:41.850Z,0.69
2023-02-15T17:14:09.713Z,0.70
2023-02-15T17:16:50.437Z,0.63
2023-02-15T17:19:19.213Z,0.61
2023-02-15T17:21:52.111Z,0.54
2023-02-15T17:24:29.873Z,0.40
2023-02-15T17:27:01.411Z,0.47
2023-02-15T17:29:32.024Z,0.55
2023-02-15T17:31:59.507Z,0.54
2023-02-15T17:35:09.145Z,0.39
2023-02-15T17:37:38.774Z,0.38
2023-02-15T17:40:18.881Z,0.34
2023-02-15T17:42:45.371Z,0.27
2023-02-15T17:45:13.684Z,0.14
2023-02-15T17:47:42.008Z,0.14
2023-02-15T17:50:16.377Z,0.22
2023-02-15T17:52:42.936Z,0.29
2023-02-15T17:55:34.612Z,0.41
2023-02-15T17:58:02.925Z,0.38
2023-02-15T18:00:50.710Z,0.51
2023-02-15T18:03:36.722Z,0.41
2023-02-15T18:06:22.259Z,0.38
2023-02-15T18:09:07.208Z,0.38
2023-02-15T18:11:39.851Z,0.22
2023-02-15T18:14:10.783Z,0.35
2023-02-15T18:16:43.503Z,0.28
2023-02-15T18:19:16.188Z,0.12
2023-02-15T18:21:43.411Z,0.07
2023-02-15T18:24:16.160Z,0.12
2023-02-15T18:26:42.818Z,-0.02
2023-02-15T18:29:09.367Z,-0.04
2023-02-15T18:31:36.013Z,0.08
2023-02-15T18:34:03.327Z,0.06
2023-02-15T18:36:50.146Z,0.14
2023-02-15T18:39:26.945Z,0.20
2023-02-15T18:41:53.891Z,0.14
2023-02-15T18:44:20.328Z,-0.03
2023-02-15T18:46:46.744Z,-0.13
2023-02-15T18:49:13.168Z,-0.01
2023-02-15T18:51:40.894Z,-0.08
2023-02-15T18:54:22.541Z,0.09
2023-02-15T18:56:54.172Z,-0.04
2023-02-15T18:59:21.968Z,0.03
2023-02-15T19:01:48.535Z,0.11
2023-02-15T19:04:15.027Z,-0.01
2023-02-15T19:06:46.592Z,0.02
2023-02-15T19:09:18.351Z,-0.17
2023-02-15T19:11:55.249Z,0.08
2023-02-15T19:14:27.970Z,-0.05
2023-02-15T19:16:55.754Z,0.12
2023-02-15T19:19:22.823Z,0.08
2023-02-15T19:21:49.838Z,0.12
2023-02-15T19:24:34.218Z,0.04
2023-02-15T19:27:01.468Z,0.13
2023-02-15T19:29:30.270Z,-0.03
2023-02-15T19:31:58.041Z,0.11
2023-02-15T19:34:24.742Z,0.03
2023-02-15T19:36:53.410Z,0.14
2023-02-15T19:39:30.540Z,0.13
2023-02-15T19:41:57.125Z,0.06
2023-02-15T19:44:23.810Z,-0.05
2023-02-15T19:46:50.470Z,-0.07
2023-02-15T19:49:17.285Z,-0.11
2023-02-15T19:51:44.241Z,-0.09
2023-02-15T19:54:28.736Z,-0.02
2023-02-15T19:56:55.663Z,-0.02
2023-02-15T19:59:27.949Z,-0.04
2023-02-15T20:01:55.319Z,-0.12
2023-02-15T20:04:22.282Z,-0.36
2023-02-15T20:06:50.534Z,-0.23
2023-02-15T20:09:30.403Z,-0.17
2023-02-15T20:11:57.753Z,-0.37
2023-02-15T20:14:24.272Z,-0.32
2023-02-15T20:16:50.918Z,-0.11
2023-02-15T20:19:17.456Z,-0.19
2023-02-15T20:21:45.947Z,-0.09
2023-02-15T20:24:19.004Z,-0.19
2023-02-15T20:26:46.011Z,-0.20
2023-02-15T20:29:18.442Z,-0.25
2023-02-15T20:31:45.688Z,-0.30
2023-02-15T20:34:12.285Z,-0.33
2023-02-15T20:36:39.991Z,-0.18
2023-02-15T20:39:16.518Z,-0.33
2023-02-15T20:41:47.703Z,-0.27
2023-02-15T20:44:29.063Z,-0.11
2023-02-15T20:46:58.443Z,0.07
2023-02-15T20:49:26.382Z,-0.10
2023-02-15T20:51:54.421Z,-0.19
2023-02-15T20:54:26.392Z,0.02
2023-02-15T20:56:54.205Z,0.03
2023-02-15T20:59:23.824Z,0.08
2023-02-15T21:01:52.983Z,-0.01
2023-02-15T21:04:23.825Z,-0.19
2023-02-15T21:06:50.285Z,-0.07
2023-02-15T21:09:17.080Z,-0.36
2023-02-15T21:11:44.747Z,-0.15
2023-02-15T21:14:17.511Z,-0.24
2023-02-15T21:16:44.249Z,-0.28
2023-02-15T21:19:13.482Z,-0.23
2023-02-15T21:21:40.159Z,-0.38
2023-02-15T21:24:07.576Z,-0.36
2023-02-15T21:26:34.137Z,-0.23
2023-02-15T21:29:00.840Z,-0.28
2023-02-15T21:31:28.649Z,-0.35
2023-02-15T21:33:55.198Z,-0.26
2023-02-15T21:36:24.259Z,-0.24
2023-02-15T21:38:51.135Z,-0.23
2023-02-15T21:41:41.090Z,-0.39
2023-02-15T21:44:41.155Z,-0.24
2023-02-15T21:47:41.765Z,-0.26
2023-02-15T21:50:32.768Z,-0.34
2023-02-15T21:52:59.480Z,-0.30
2023-02-15T21:55:26.636Z,-0.40
2023-02-15T21:57:53.087Z,-0.61
2023-02-15T22:00:22.020Z,-0.53
2023-02-15T22:02:52.487Z,-0.60
2023-02-15T22:05:21.863Z,-0.55
2023-02-15T22:07:48.443Z,-0.62
2023-02-15T22:10:15.091Z,-0.59
2023-02-15T22:12:42.962Z,-0.59
2023-02-15T22:15:24.448Z,-0.49
2023-02-15T22:17:52.869Z,-0.35
2023-02-15T22:20:22.041Z,-0.31
2023-02-15T22:22:50.329Z,-0.08
2023-02-15T22:25:20.295Z,-0.03
2023-02-15T22:27:48.188Z,-0.14
2023-02-15T22:30:32.133Z,-0.03
2023-02-15T22:33:00.109Z,-0.24
2023-02-15T22:35:28.305Z,-0.34
2023-02-15T22:37:55.156Z,-0.45
2023-02-15T22:40:27.611Z,-0.65
2023-02-15T22:42:54.731Z,-0.67
2023-02-15T22:45:23.997Z,-0.46
2023-02-15T22:47:53.598Z,-0.61
2023-02-15T22:50:23.868Z,-0.52
2023-02-15T22:52:51.243Z,-0.60
2023-02-15T22:55:20.450Z,-0.62
2023-02-15T22:57:51.246Z,-0.65
2023-02-15T23:00:21.195Z,-0.69
2023-02-15T23:02:48.097Z,-0.62
2023-02-15T23:05:18.022Z,-0.50
2023-02-15T23:07:44.751Z,-0.54
2023-02-15T23:10:21.056Z,-0.45
2023-02-15T23:13:08.133Z,-0.65
2023-02-15T23:15:35.748Z,-0.74
2023-02-15T23:18:33.224Z,-0.64
2023-02-15T23:21:16.670Z,-0.79
2023-02-15T23:23:46.354Z,-0.92
2023-02-15T23:26:24.330Z,-0.95
2023-02-15T23:28:51.434Z,-0.99
2023-02-15T23:31:23.956Z,-1.02
2023-02-15T23:33:51.500Z,-0.95
2023-02-15T23:36:30.072Z,-0.98
2023-02-15T23:38:59.058Z,-1.02
2023-02-15T23:41:29.278Z,-1.01
2023-02-15T23:44:00.302Z,-1.07
2023-02-15T23:46:28.835Z,-1.10
2023-02-15T23:48:57.044Z,-1.11
2023-02-15T23:51:29.258Z,-1.05
2023-02-15T23:53:55.725Z,-1.27
2023-02-15T23:56:22.152Z,-1.28
2023-02-15T23:58:50.438Z,-1.21
